Time;durP1;ratioP1;P1;durP2;ratioP2;P2;SDS_P1;SDS_P2;PMS_P1;PMS_P2;Temp;Humidity;BMP_temperature;BMP_pressure;BME280_temperature;BME280_humidity;BME280_pressure;Samples;Min_cycle;Max_cycle;Signal;HPM_P1;HPM_P2
2022/06/27 00:05:31;;;;;;;3.58;1.30;;;23.40;28.40;;;;;;20923102;28;20453;-64
2022/06/27 00:15:34;;;;;;;4.47;1.45;;;23.20;28.50;;;;;;20921103;28;20049;-63
2022/06/27 00:25:35;;;;;;;2.67;1.17;;;23.10;28.60;;;;;;20921843;28;20053;-66
2022/06/27 00:35:37;;;;;;;3.50;1.30;;;23.00;28.70;;;;;;20918809;28;20049;-64
2022/06/27 00:45:39;;;;;;;2.55;0.95;;;23.00;29.10;;;;;;20919815;28;20456;-65
2022/06/27 00:55:42;;;;;;;4.95;1.10;;;22.80;29.20;;;;;;20916671;28;20053;-64
2022/06/27 01:05:51;;;;;;;2.70;1.35;;;22.70;29.40;;;;;;20917692;28;20051;-66
2022/06/27 01:15:53;;;;;;;4.32;3.03;;;23.10;29.00;;;;;;20915373;28;20053;-66
2022/06/27 01:25:56;;;;;;;3.00;1.10;;;22.80;29.20;;;;;;20915331;28;20084;-63
2022/06/27 01:46:23;;;;;;;3.63;1.20;;;22.90;28.70;;;;;;20914179;28;20059;-62
2022/06/27 01:56:30;;;;;;;4.70;1.35;;;22.40;29.40;;;;;;20913773;28;20379;-65
2022/06/27 02:06:35;;;;;;;4.43;0.97;;;22.90;28.80;;;;;;20912397;28;20051;-64
2022/06/27 02:16:41;;;;;;;3.38;1.63;;;22.20;29.70;;;;;;20912437;28;20079;-63
2022/06/27 02:26:50;;;;;;;3.13;1.42;;;22.10;29.80;;;;;;20919842;28;20095;-62
2022/06/27 02:36:55;;;;;;;1.92;1.00;;;22.10;29.90;;;;;;20939742;28;20049;-66
2022/06/27 02:47:01;;;;;;;4.07;1.17;;;21.90;30.50;;;;;;20939214;28;20053;-66
2022/06/27 02:57:43;;;;;;;3.13;1.00;;;21.60;30.80;;;;;;20939083;28;20049;-67
2022/06/27 03:07:47;;;;;;;2.00;0.90;;;21.30;31.60;;;;;;20938509;28;20541;-65
2022/06/27 03:17:49;;;;;;;2.90;1.48;;;20.90;32.20;;;;;;20937804;28;20069;-66
2022/06/27 03:27:52;;;;;;;4.20;1.13;;;20.70;32.70;;;;;;20936915;28;20055;-64
2022/06/27 03:37:53;;;;;;;2.38;0.90;;;20.50;33.00;;;;;;20933884;28;20450;-64
2022/06/27 03:47:59;;;;;;;5.47;1.17;;;20.60;33.50;;;;;;20923168;28;20148;-65
2022/06/27 03:58:01;;;;;;;1.50;0.95;;;20.70;33.80;;;;;;20922263;28;20051;-68
2022/06/27 04:08:02;;;;;;;3.08;1.25;;;20.60;36.50;;;;;;20922339;28;20049;-63
2022/06/27 04:18:04;;;;;;;1.58;0.70;;;20.40;39.60;;;;;;20921297;28;20056;-64
2022/06/27 04:28:06;;;;;;;2.90;1.00;;;20.40;41.70;;;;;;20920414;28;20508;-65
2022/06/27 04:38:08;;;;;;;2.08;0.98;;;20.30;42.80;;;;;;20919976;28;20124;-66
2022/06/27 04:48:16;;;;;;;1.52;0.80;;;20.30;43.70;;;;;;20916856;28;20060;-66
2022/06/27 04:58:18;;;;;;;1.55;0.80;;;20.20;44.50;;;;;;20916712;28;20171;-64
2022/06/27 05:08:20;;;;;;;4.55;0.90;;;19.90;45.80;;;;;;20917053;28;20091;-64
2022/06/27 05:18:22;;;;;;;2.13;1.02;;;19.70;46.60;;;;;;20916956;28;20052;-64
2022/06/27 05:28:24;;;;;;;3.70;0.80;;;19.70;47.20;;;;;;20915645;28;20045;-66
2022/06/27 05:38:26;;;;;;;2.05;0.65;;;19.90;48.00;;;;;;20914820;28;20238;-63
2022/06/27 05:48:28;;;;;;;2.25;0.65;;;19.50;48.40;;;;;;20914747;28;20469;-68
2022/06/27 05:58:30;;;;;;;3.05;0.82;;;19.50;48.70;;;;;;20913093;28;20040;-63
2022/06/27 06:08:32;;;;;;;2.17;0.60;;;19.40;49.10;;;;;;20912236;28;20187;-63
2022/06/27 06:18:35;;;;;;;1.27;0.57;;;19.40;49.30;;;;;;20914329;28;20052;-67
2022/06/27 06:28:37;;;;;;;2.00;0.65;;;19.50;49.40;;;;;;20913279;28;20060;-66
2022/06/27 06:38:39;;;;;;;2.92;0.70;;;19.50;49.40;;;;;;20912650;28;20427;-62
2022/06/27 06:48:41;;;;;;;2.95;0.63;;;19.40;49.70;;;;;;20910916;28;20057;-64
2022/06/27 06:58:43;;;;;;;5.90;0.68;;;19.80;49.40;;;;;;20909545;28;20049;-65
2022/06/27 07:08:46;;;;;;;0.88;0.47;;;20.10;48.10;;;;;;20909745;28;20052;-64
2022/06/27 07:18:53;;;;;;;2.92;0.57;;;21.20;46.00;;;;;;20923320;28;20057;-66
2022/06/27 07:28:55;;;;;;;4.87;0.40;;;22.10;44.10;;;;;;20924681;28;20045;-63
2022/06/27 07:38:58;;;;;;;3.38;0.55;;;22.40;43.40;;;;;;20924562;28;20056;-66
2022/06/27 07:49:00;;;;;;;0.90;0.50;;;23.50;41.30;;;;;;20923202;28;20057;-63
2022/06/27 07:59:06;;;;;;;2.78;0.70;;;22.90;42.20;;;;;;20922380;28;20045;-65
2022/06/27 08:09:09;;;;;;;1.20;0.60;;;23.40;41.10;;;;;;20921806;28;20048;-71
2022/06/27 08:19:12;;;;;;;10.38;1.33;;;;;;;;;;20918373;28;20041;-65
2022/06/27 08:29:15;;;;;;;3.05;0.68;;;24.50;39.40;;;;;;20917421;28;20045;-58
2022/06/27 08:39:18;;;;;;;3.35;0.63;;;25.20;38.20;;;;;;20916252;28;20053;-58
2022/06/27 08:49:21;;;;;;;4.70;0.80;;;25.40;37.80;;;;;;20913248;28;20049;-62
2022/06/27 08:59:24;;;;;;;2.45;0.70;;;25.60;37.20;;;;;;20915637;28;20049;-60
2022/06/27 09:09:27;;;;;;;1.45;0.60;;;;;;;;;;20952239;28;20056;-61
2022/06/27 09:19:49;;;;;;;1.73;0.50;;;26.40;35.40;;;;;;20919484;28;20056;-58
2022/06/27 09:29:51;;;;;;;1.85;0.55;;;25.90;35.50;;;;;;20909272;28;20051;-57
2022/06/27 09:39:53;;;;;;;3.35;0.80;;;25.70;35.90;;;;;;20910608;28;20044;-56
2022/06/27 09:49:59;;;;;;;2.30;0.70;;;25.60;35.60;;;;;;20910302;28;20055;-63
2022/06/27 10:00:06;;;;;;;2.17;0.80;;;25.50;35.40;;;;;;20912222;28;20045;-58
2022/06/27 10:10:08;;;;;;;1.75;0.70;;;25.90;34.70;;;;;;20896775;28;20369;-69
2022/06/27 10:20:20;;;;;;;2.15;0.70;;;25.90;34.50;;;;;;20919876;28;20045;-63
2022/06/27 10:30:42;;;;;;;9.30;1.23;;;;;;;;;;20913426;28;20049;-63
2022/06/27 10:40:44;;;;;;;4.32;1.33;;;;;;;;;;20907136;28;20041;-61
2022/06/27 10:50:46;;;;;;;3.17;1.05;;;;;;;;;;20917053;28;20045;-58
2022/06/27 11:00:49;;;;;;;3.20;1.25;;;;;;;;;;20921572;28;20123;-73
2022/06/27 11:10:51;;;;;;;3.42;0.98;;;;;;;;;;20922224;28;20518;-60
2022/06/27 11:20:57;;;;;;;1.40;0.80;;;;;;;;;;20922997;28;20052;-75
2022/06/27 11:41:32;;;;;;;4.13;1.10;;;;;;;;;;20920632;28;20084;-66
2022/06/27 11:51:35;;;;;;;5.18;0.98;;;;;;;;;;20920740;28;20099;-57
2022/06/27 12:01:49;;;;;;;5.75;1.02;;;;;;;;;;20918859;28;20053;-63
2022/06/27 12:12:04;;;;;;;3.85;1.00;;;27.70;29.80;;;;;;20920725;28;20055;-63
2022/06/27 12:22:06;;;;;;;4.22;0.95;;;26.90;30.80;;;;;;20921897;28;20053;-66
2022/06/27 12:32:08;;;;;;;2.65;0.77;;;27.20;30.10;;;;;;20919759;28;20053;-67
2022/06/27 12:42:09;;;;;;;2.05;0.85;;;26.90;29.70;;;;;;20918781;28;20085;-62
2022/06/27 12:52:11;;;;;;;3.15;0.88;;;26.90;28.80;;;;;;20919684;28;20059;-64
2022/06/27 13:02:15;;;;;;;2.15;0.98;;;26.80;28.40;;;;;;20917398;28;20397;-64
2022/06/27 13:12:18;;;;;;;2.15;0.90;;;26.80;27.70;;;;;;20916742;28;20057;-67
2022/06/27 13:22:20;;;;;;;4.90;1.92;;;27.30;27.00;;;;;;20916423;28;20045;-61
2022/06/27 13:32:22;;;;;;;1.48;0.65;;;27.30;27.10;;;;;;20916129;28;20059;-61
2022/06/27 13:42:24;;;;;;;3.05;1.00;;;27.40;27.10;;;;;;20914555;28;20101;-62
2022/06/27 13:52:26;;;;;;;1.92;0.80;;;27.50;27.20;;;;;;20913511;28;20084;-67
2022/06/27 14:02:28;;;;;;;4.05;1.02;;;27.40;27.50;;;;;;20914708;28;20428;-63
2022/06/27 14:12:33;;;;;;;2.00;0.60;;;27.60;27.10;;;;;;20913041;28;20064;-61
2022/06/27 14:22:36;;;;;;;3.35;0.70;;;27.80;26.80;;;;;;20911608;28;20053;-63
2022/06/27 14:32:38;;;;;;;3.70;0.93;;;27.60;27.10;;;;;;20911436;28;20087;-67
2022/06/27 14:42:40;;;;;;;3.60;1.20;;;27.60;27.20;;;;;;20911759;28;20549;-63
2022/06/27 14:52:41;;;;;;;2.75;0.82;;;27.50;27.20;;;;;;20910910;28;20075;-71
2022/06/27 15:02:43;;;;;;;3.55;1.02;;;27.50;27.30;;;;;;20912302;28;20059;-65
2022/06/27 15:12:45;;;;;;;2.83;0.80;;;27.50;28.50;;;;;;20916216;28;20142;-72
2022/06/27 15:22:46;;;;;;;10.93;3.22;;;27.20;29.90;;;;;;20914170;28;20069;-63
2022/06/27 15:32:48;;;;;;;6.38;1.00;;;27.20;29.20;;;;;;20909614;28;20563;-63
2022/06/27 15:42:50;;;;;;;2.30;0.60;;;27.60;28.30;;;;;;20925437;28;20178;-65
2022/06/27 15:52:51;;;;;;;3.10;1.00;;;27.90;27.70;;;;;;20925851;28;20087;-62
2022/06/27 16:02:53;;;;;;;1.90;1.33;;;28.00;27.60;;;;;;20921802;28;20048;-60
2022/06/27 16:12:54;;;;;;;2.33;0.85;;;28.00;27.60;;;;;;20920864;28;20045;-64
2022/06/27 16:22:56;;;;;;;1.40;0.80;;;27.90;27.50;;;;;;20921439;28;20056;-62
2022/06/27 16:32:59;;;;;;;2.33;0.95;;;27.80;27.70;;;;;;20920999;28;20144;-62
2022/06/27 16:43:19;;;;;;;0.90;0.57;;;27.70;27.70;;;;;;20922090;28;20045;-66
2022/06/27 16:53:22;;;;;;;1.40;0.52;;;27.60;27.60;;;;;;20919083;28;20106;-60
2022/06/27 17:03:24;;;;;;;3.03;0.68;;;27.70;27.20;;;;;;20916984;28;20179;-66
2022/06/27 17:13:26;;;;;;;3.38;0.77;;;27.90;26.40;;;;;;20916858;28;20052;-60
2022/06/27 17:23:28;;;;;;;6.30;0.82;;;27.90;26.10;;;;;;20915292;28;20084;-60
2022/06/27 17:33:30;;;;;;;4.10;1.00;;;27.90;25.70;;;;;;20915103;28;20069;-61
2022/06/27 17:43:32;;;;;;;7.03;2.03;;;27.90;26.20;;;;;;20913615;28;20078;-61
2022/06/27 17:53:35;;;;;;;3.53;1.15;;;27.70;26.10;;;;;;20910331;28;20056;-70
2022/06/27 18:03:37;;;;;;;1.48;1.00;;;27.50;26.50;;;;;;20910085;28;20096;-69
2022/06/27 18:13:38;;;;;;;6.80;1.13;;;27.50;26.40;;;;;;20909573;28;20374;-66
2022/06/27 18:23:40;;;;;;;2.78;1.10;;;27.60;26.80;;;;;;20909337;28;20071;-75
2022/06/27 18:33:42;;;;;;;1.83;0.90;;;27.70;26.90;;;;;;20910501;28;20083;-69
2022/06/27 18:43:45;;;;;;;3.72;1.27;;;27.70;27.00;;;;;;20910932;28;20049;-67
2022/06/27 18:53:47;;;;;;;5.63;1.20;;;27.60;27.00;;;;;;20913918;28;20041;-69
2022/06/27 19:03:48;;;;;;;2.63;1.13;;;27.40;28.40;;;;;;20910923;28;20091;-65
2022/06/27 19:13:50;;;;;;;2.42;1.48;;;27.20;28.70;;;;;;20919799;28;20041;-65
2022/06/27 19:23:53;;;;;;;2.65;1.30;;;27.00;29.10;;;;;;20925416;28;20045;-67
2022/06/27 19:33:54;;;;;;;2.17;1.00;;;26.90;29.00;;;;;;20925852;28;20466;-68
2022/06/27 19:43:56;;;;;;;2.20;1.08;;;26.70;29.00;;;;;;20926545;28;20470;-68
2022/06/27 19:53:58;;;;;;;5.10;1.58;;;;;;;;;;20927282;28;20504;-67
2022/06/27 20:04:00;;;;;;;3.80;1.38;;;26.40;29.00;;;;;;20924341;28;20455;-69
2022/06/27 20:14:02;;;;;;;3.90;1.75;;;26.20;29.10;;;;;;20926194;28;20052;-69
2022/06/27 20:24:05;;;;;;;2.42;1.10;;;26.10;29.50;;;;;;20925521;28;20064;-67
2022/06/27 20:34:07;;;;;;;1.58;0.80;;;25.90;30.30;;;;;;20921810;28;20041;-68
2022/06/27 20:44:10;;;;;;;2.95;1.15;;;25.70;30.80;;;;;;20921081;28;20044;-66
2022/06/27 20:54:12;;;;;;;2.95;1.50;;;25.60;31.00;;;;;;20919488;28;20044;-68
2022/06/27 21:04:15;;;;;;;2.50;1.00;;;25.30;31.20;;;;;;20918184;28;20049;-68
2022/06/27 21:14:20;;;;;;;3.15;0.90;;;25.10;31.50;;;;;;20916534;28;20049;-69
2022/06/27 21:24:23;;;;;;;5.05;1.10;;;24.90;31.70;;;;;;20916812;28;20053;-68
2022/06/27 21:34:24;;;;;;;1.92;1.15;;;24.60;32.00;;;;;;20913763;28;20127;-69
2022/06/27 21:44:26;;;;;;;3.83;0.98;;;24.40;32.30;;;;;;20915955;28;20132;-72
2022/06/27 21:54:28;;;;;;;1.42;0.60;;;24.30;32.60;;;;;;20914892;28;20493;-69
2022/06/27 22:04:31;;;;;;;3.95;0.47;;;24.20;33.10;;;;;;20914056;28;20106;-68
2022/06/27 22:14:33;;;;;;;3.40;0.80;;;;;;;;;;20912525;28;20048;-68
2022/06/27 22:24:36;;;;;;;3.45;0.90;;;23.40;35.50;;;;;;20914796;28;20454;-69
2022/06/27 22:34:38;;;;;;;1.58;0.50;;;23.00;36.60;;;;;;20912428;28;20049;-69
2022/06/27 22:44:41;;;;;;;2.80;0.50;;;22.90;37.20;;;;;;20919052;28;20044;-67
2022/06/27 22:54:44;;;;;;;3.20;0.63;;;;;;;;;;20929479;28;20049;-70
2022/06/27 23:04:46;;;;;;;2.33;0.40;;;22.70;39.30;;;;;;20927360;28;20121;-64
2022/06/27 23:14:48;;;;;;;2.70;0.35;;;22.30;39.70;;;;;;20926736;28;20045;-68
2022/06/27 23:24:50;;;;;;;7.22;0.55;;;21.90;40.90;;;;;;20926162;28;20053;-66
2022/06/27 23:34:52;;;;;;;0.75;0.38;;;21.70;41.20;;;;;;20927131;28;20041;-70
2022/06/27 23:44:54;;;;;;;1.02;0.40;;;21.50;41.50;;;;;;20926913;28;20059;-68
2022/06/27 23:54:55;;;;;;;1.63;0.40;;;21.60;41.60;;;;;;20924138;28;20049;-69
